Time;durP1;ratioP1;P1;durP2;ratioP2;P2;SDS_P1;SDS_P2;PMS_P1;PMS_P2;Temp;Humidity;BMP_temperature;BMP_pressure;BME280_temperature;BME280_humidity;BME280_pressure;Samples;Min_cycle;Max_cycle;Signal;HPM_P1;HPM_P2
2023/12/13 00:01:41;;;;;;;1.27;1.20;;;;;;;-10.96;87.29;99572.19;4973323;28;20054;-77
2023/12/13 00:04:09;;;;;;;1.40;1.30;;;;;;;-10.93;87.31;99572.00;4987274;28;20055;-77
2023/12/13 00:06:37;;;;;;;1.55;1.45;;;;;;;-10.94;87.08;99565.13;4973222;28;20561;-77
2023/12/13 00:09:08;;;;;;;1.58;1.48;;;;;;;-11.05;87.48;99570.13;4972706;28;20153;-78
2023/12/13 00:11:36;;;;;;;1.60;1.50;;;;;;;-11.11;87.27;99573.13;4972449;28;20528;-76
2023/12/13 00:14:04;;;;;;;1.30;1.20;;;;;;;-11.08;87.37;99572.09;4971591;28;20055;-77
2023/12/13 00:16:31;;;;;;;1.40;1.30;;;;;;;-11.07;87.48;99571.16;4971398;28;20118;-77
2023/12/13 00:18:58;;;;;;;1.60;1.50;;;;;;;-11.03;87.43;99575.25;4971631;28;20057;-77
2023/12/13 00:21:26;;;;;;;1.70;1.60;;;;;;;-11.01;87.34;99569.03;4972485;28;20066;-77
2023/12/13 00:23:56;;;;;;;1.60;1.50;;;;;;;-11.03;87.40;99581.31;4972654;28;20058;-77
2023/12/13 00:26:23;;;;;;;1.20;1.20;;;;;;;-11.06;87.46;99580.63;4972577;28;20051;-77
2023/12/13 00:28:52;;;;;;;1.70;1.60;;;;;;;-11.09;87.42;99592.09;4972531;28;20194;-77
2023/12/13 00:31:19;;;;;;;1.63;1.52;;;;;;;-11.13;87.54;99574.97;4971341;28;20536;-77
2023/12/13 00:33:46;;;;;;;1.30;1.20;;;;;;;-11.15;87.44;99572.47;4971408;28;20070;-77
2023/12/13 00:36:14;;;;;;;1.70;1.60;;;;;;;-11.18;87.26;99579.63;4972667;28;20077;-76
2023/12/13 00:38:41;;;;;;;1.58;1.48;;;;;;;-11.13;87.47;99578.41;4972797;28;20051;-77
2023/12/13 00:41:11;;;;;;;1.42;1.33;;;;;;;-11.18;87.15;99582.25;4972544;28;20050;-77
2023/12/13 00:43:38;;;;;;;1.75;1.65;;;;;;;-11.18;87.33;99590.06;4955944;28;20138;-77
2023/12/13 00:46:14;;;;;;;1.40;1.30;;;;;;;-11.20;87.19;99595.34;4972291;28;20130;-77
2023/12/13 00:48:44;;;;;;;1.70;1.60;;;;;;;-11.20;87.09;99594.53;4972614;28;20055;-77
2023/12/13 00:51:16;;;;;;;1.40;1.30;;;;;;;-11.19;87.24;99597.06;4969857;28;20055;-77
2023/12/13 00:53:44;;;;;;;1.45;1.35;;;;;;;-11.20;87.48;99600.56;4954490;28;20121;-78
2023/12/13 00:56:14;;;;;;;1.40;1.30;;;;;;;-11.20;87.18;99608.38;4969762;28;20054;-77
2023/12/13 00:58:48;;;;;;;1.52;1.42;;;;;;;-11.24;87.12;99601.69;4970305;28;20055;-77
2023/12/13 01:01:16;;;;;;;1.65;1.55;;;;;;;-11.23;87.05;99586.91;4954981;28;20082;-76
2023/12/13 01:03:44;;;;;;;1.60;1.50;;;;;;;-11.28;87.13;99581.94;4953652;28;20058;-77
2023/12/13 01:06:12;;;;;;;1.70;1.60;;;;;;;-11.25;87.11;99599.16;4969912;28;20062;-77
2023/12/13 01:08:39;;;;;;;1.40;1.30;;;;;;;-11.25;87.07;99589.59;4969906;28;20141;-77
2023/12/13 01:11:08;;;;;;;1.30;1.20;;;;;;;-11.26;87.09;99587.91;4969714;28;20050;-77
2023/12/13 01:13:38;;;;;;;1.48;1.38;;;;;;;-11.26;87.10;99582.69;4970224;28;20501;-77
2023/12/13 01:16:09;;;;;;;1.38;1.27;;;;;;;-11.29;86.99;99582.91;4969874;28;20047;-75
2023/12/13 01:18:36;;;;;;;1.10;1.10;;;;;;;-11.26;86.88;99579.28;4970185;28;20070;-76
2023/12/13 01:21:04;;;;;;;1.70;1.60;;;;;;;-11.27;86.98;99574.97;4938155;28;20047;-77
2023/12/13 01:23:34;;;;;;;1.63;1.52;;;;;;;-11.29;86.85;99590.72;4957101;28;20059;-77
2023/12/13 01:26:02;;;;;;;1.40;1.30;;;;;;;-11.41;86.57;99581.84;4957039;28;20134;-77
2023/12/13 01:28:29;;;;;;;1.45;1.35;;;;;;;-11.48;86.92;99582.31;4956816;28;20098;-77
2023/12/13 01:30:57;;;;;;;1.30;1.20;;;;;;;-11.43;86.67;99577.66;4957362;28;20051;-77
2023/12/13 01:33:25;;;;;;;1.52;1.42;;;;;;;-11.46;86.93;99594.31;4956672;28;20133;-77
2023/12/13 01:35:52;;;;;;;1.50;1.40;;;;;;;-11.47;87.06;99579.59;4956832;28;20055;-77
2023/12/13 01:38:22;;;;;;;1.40;1.30;;;;;;;-11.48;86.88;99590.94;4956495;28;20043;-77
2023/12/13 01:40:53;;;;;;;1.48;1.38;;;;;;;-11.51;87.05;99591.16;4956828;28;20081;-75
2023/12/13 01:43:43;;;;;;;1.48;1.38;;;;;;;-11.52;86.76;99594.66;4942275;29;20162;-77
2023/12/13 01:46:16;;;;;;;1.65;1.55;;;;;;;-11.52;86.68;99584.25;4954916;29;20047;-77
2023/12/13 01:48:44;;;;;;;1.70;1.60;;;;;;;-11.53;86.70;99602.59;4955620;29;20078;-76
2023/12/13 01:51:12;;;;;;;1.48;1.38;;;;;;;-11.60;86.73;99589.91;4956257;28;20051;-77
2023/12/13 01:53:42;;;;;;;1.40;1.30;;;;;;;-11.61;86.77;99587.41;4956119;28;20055;-77
2023/12/13 01:56:10;;;;;;;1.17;1.17;;;;;;;-11.55;86.90;99589.63;4956246;28;20054;-76
2023/12/13 01:58:38;;;;;;;1.52;1.42;;;;;;;-11.50;87.07;99587.59;4990362;28;20050;-76
2023/12/13 02:01:09;;;;;;;1.50;1.40;;;;;;;-11.53;86.77;99586.94;4958232;28;20047;-77
2023/12/13 02:03:42;;;;;;;1.40;1.30;;;;;;;-11.53;86.82;99595.59;4970481;28;20415;-77
2023/12/13 02:06:09;;;;;;;1.50;1.40;;;;;;;-11.54;86.85;99588.72;4956055;29;20090;-75
2023/12/13 02:08:37;;;;;;;1.20;1.20;;;;;;;-11.57;86.84;99581.06;4956272;28;20106;-76
2023/12/13 02:11:04;;;;;;;1.45;1.35;;;;;;;-11.50;87.01;99571.13;4955719;28;20062;-77
2023/12/13 02:13:32;;;;;;;1.40;1.30;;;;;;;-11.53;86.78;99602.59;4956111;29;20051;-76
2023/12/13 02:16:01;;;;;;;1.42;1.33;;;;;;;-11.58;86.65;99597.63;4970571;28;20060;-76
2023/12/13 02:18:31;;;;;;;1.58;1.48;;;;;;;-11.59;86.66;99598.56;4956233;28;20054;-76
2023/12/13 02:20:58;;;;;;;1.65;1.55;;;;;;;-11.56;86.88;99585.38;4986774;28;20086;-77
2023/12/13 02:23:26;;;;;;;1.45;1.35;;;;;;;-11.54;86.66;99599.16;4956022;29;20454;-77
2023/12/13 02:26:00;;;;;;;1.50;1.40;;;;;;;-11.61;86.35;99598.66;4956211;28;20057;-77
2023/12/13 02:28:31;;;;;;;1.48;1.38;;;;;;;-11.67;86.49;99588.59;4964614;28;20050;-77
2023/12/13 02:31:03;;;;;;;1.60;1.50;;;;;;;-11.71;86.34;99594.06;4975670;28;20105;-77
2023/12/13 02:33:30;;;;;;;1.33;1.23;;;;;;;-11.71;86.22;99597.50;4958119;28;20696;-77
2023/12/13 02:36:00;;;;;;;1.65;1.55;;;;;;;-11.72;86.10;99608.00;4973697;28;20043;-76
2023/12/13 02:38:30;;;;;;;1.50;1.40;;;;;;;-11.76;86.36;99601.31;4974065;28;20117;-77
2023/12/13 02:41:02;;;;;;;1.70;1.60;;;;;;;-11.76;86.37;99596.94;4973322;28;20042;-77
2023/12/13 02:43:30;;;;;;;1.70;1.60;;;;;;;-11.79;85.77;99603.16;4973099;28;20399;-77
2023/12/13 02:45:58;;;;;;;1.60;1.50;;;;;;;-11.88;85.63;99608.91;4974627;28;20572;-77
2023/12/13 02:48:25;;;;;;;1.60;1.50;;;;;;;-11.92;85.79;99615.25;4974171;28;20082;-77
2023/12/13 02:50:53;;;;;;;1.60;1.50;;;;;;;-11.93;85.85;99610.13;4974685;28;20049;-77
2023/12/13 02:53:21;;;;;;;1.60;1.50;;;;;;;-11.96;85.81;99605.09;4973086;28;20043;-77
2023/12/13 02:55:50;;;;;;;1.65;1.55;;;;;;;-11.99;85.83;99618.28;4957483;28;20078;-77
2023/12/13 02:58:18;;;;;;;1.50;1.40;;;;;;;-12.03;85.81;99612.41;4974035;28;20054;-77
2023/12/13 03:00:46;;;;;;;1.55;1.45;;;;;;;-12.09;85.85;99623.16;4974160;28;20102;-77
2023/12/13 03:03:14;;;;;;;1.70;1.60;;;;;;;-12.14;85.60;99613.00;4972450;28;20058;-75
2023/12/13 03:08:25;;;;;;;1.50;1.40;;;;;;;-12.18;85.61;99615.88;4973708;28;20498;-78
2023/12/13 03:10:53;;;;;;;1.60;1.50;;;;;;;-12.24;85.34;99623.09;4974120;28;20093;-77
2023/12/13 03:13:20;;;;;;;1.70;1.60;;;;;;;-12.27;85.17;99610.25;4974093;28;20462;-77
2023/12/13 03:15:47;;;;;;;1.50;1.40;;;;;;;-12.28;84.99;99619.00;4974032;28;20054;-76
2023/12/13 03:18:15;;;;;;;1.52;1.42;;;;;;;-12.28;84.74;99600.78;4972139;28;20066;-76
2023/12/13 03:20:43;;;;;;;1.88;1.77;;;;;;;-12.38;84.56;99614.38;4972442;28;20081;-77
2023/12/13 03:23:10;;;;;;;1.50;1.40;;;;;;;-12.41;84.61;99619.75;4972572;28;20103;-76
2023/12/13 03:25:37;;;;;;;1.70;1.60;;;;;;;-12.38;84.57;99625.63;4973633;28;20078;-77
2023/12/13 03:28:05;;;;;;;1.88;1.77;;;;;;;-12.37;84.35;99621.25;4974487;28;20058;-76
2023/12/13 03:30:32;;;;;;;1.80;1.70;;;;;;;-12.34;84.50;99616.72;4973701;28;20470;-77
2023/12/13 03:32:59;;;;;;;1.83;1.73;;;;;;;-12.37;84.09;99611.69;4973570;28;20513;-78
2023/12/13 03:35:27;;;;;;;1.60;1.50;;;;;;;-12.38;83.74;99611.75;4973567;28;20046;-77
2023/12/13 03:37:54;;;;;;;1.77;1.67;;;;;;;-12.39;83.80;99610.94;4974162;28;20043;-77
2023/12/13 03:40:23;;;;;;;2.00;1.90;;;;;;;-12.41;83.64;99619.75;4980220;28;20051;-77
2023/12/13 03:42:52;;;;;;;1.77;1.67;;;;;;;-12.38;83.68;99625.63;4982395;28;20057;-77
2023/12/13 03:45:23;;;;;;;1.80;1.70;;;;;;;-12.43;83.51;99625.00;4974630;28;20146;-77
2023/12/13 03:47:53;;;;;;;1.85;1.75;;;;;;;-12.45;83.10;99613.88;4973468;28;20399;-77
2023/12/13 03:50:21;;;;;;;1.73;1.63;;;;;;;-12.55;83.10;99610.94;4972939;28;20101;-77
2023/12/13 03:52:49;;;;;;;1.90;1.80;;;;;;;-12.46;83.04;99622.59;4973305;28;20051;-77
2023/12/13 03:55:19;;;;;;;1.40;1.30;;;;;;;-12.42;83.04;99618.91;4973365;28;20055;-77
2023/12/13 03:57:47;;;;;;;1.45;1.35;;;;;;;-12.36;83.55;99623.75;4973341;28;20065;-78
2023/12/13 04:00:17;;;;;;;1.60;1.50;;;;;;;-12.37;82.97;99622.09;4973012;28;20081;-77
2023/12/13 04:02:44;;;;;;;1.13;1.13;;;;;;;-12.48;82.94;99620.09;4973105;28;20484;-77
2023/12/13 04:05:14;;;;;;;1.60;1.50;;;;;;;-12.46;83.02;99620.00;4972877;28;20500;-77
2023/12/13 04:07:41;;;;;;;1.58;1.48;;;;;;;-12.50;83.21;99626.31;4971047;28;20066;-77
2023/12/13 04:10:09;;;;;;;1.80;1.70;;;;;;;-12.44;83.58;99620.75;4972973;28;20517;-77
2023/12/13 04:12:36;;;;;;;1.70;1.60;;;;;;;-12.47;83.72;99623.53;4972899;28;20065;-77
2023/12/13 04:15:08;;;;;;;1.73;1.63;;;;;;;-12.52;83.67;99613.38;4973622;28;20442;-77
2023/12/13 04:17:35;;;;;;;1.70;1.60;;;;;;;-12.50;83.79;99621.09;4973091;28;20101;-77
2023/12/13 04:20:06;;;;;;;1.70;1.60;;;;;;;-12.50;83.97;99621.09;4973124;28;20390;-77
2023/12/13 04:22:37;;;;;;;1.60;1.50;;;;;;;-12.57;83.98;99627.56;4971789;28;20047;-77
2023/12/13 04:25:06;;;;;;;1.83;1.73;;;;;;;-12.58;84.28;99631.91;4971348;28;20131;-77
2023/12/13 04:27:33;;;;;;;1.55;1.45;;;;;;;-12.53;84.60;99627.31;4972096;28;20058;-77
2023/12/13 04:30:01;;;;;;;1.52;1.42;;;;;;;-12.55;84.64;99631.75;4972501;28;20054;-77
2023/12/13 04:32:34;;;;;;;1.80;1.70;;;;;;;-12.53;84.72;99627.31;4972823;28;20078;-77
2023/12/13 04:35:02;;;;;;;1.60;1.50;;;;;;;-12.55;84.72;99602.31;4972981;28;20089;-77
2023/12/13 04:37:30;;;;;;;1.90;1.80;;;;;;;-12.58;84.79;99628.44;4971790;28;20077;-77
2023/12/13 04:40:01;;;;;;;1.45;1.35;;;;;;;-12.64;84.67;99634.00;4971080;28;20497;-77
2023/12/13 04:42:31;;;;;;;1.90;1.80;;;;;;;-12.65;85.06;99627.97;4971187;28;20583;-77
2023/12/13 04:45:03;;;;;;;1.60;1.50;;;;;;;-12.69;85.17;99627.28;4972359;28;20062;-77
2023/12/13 04:47:31;;;;;;;1.58;1.48;;;;;;;-12.69;85.23;99631.63;4972228;28;20058;-77
2023/12/13 04:49:59;;;;;;;1.60;1.50;;;;;;;-12.71;85.11;99634.34;4986869;28;20501;-77
2023/12/13 04:52:27;;;;;;;1.90;1.80;;;;;;;-12.78;84.82;99638.19;4971883;28;20134;-77
2023/12/13 04:54:54;;;;;;;1.92;1.83;;;;;;;-12.79;84.88;99640.84;4971910;28;20161;-77
2023/12/13 04:57:23;;;;;;;1.55;1.45;;;;;;;-12.81;85.13;99637.50;4971377;28;20110;-77
2023/12/13 04:59:50;;;;;;;1.67;1.58;;;;;;;-12.76;85.32;99641.53;4971808;28;20058;-77
2023/12/13 05:02:18;;;;;;;1.70;1.60;;;;;;;-12.77;85.31;99647.66;4971767;28;20050;-77
2023/12/13 05:04:48;;;;;;;1.50;1.40;;;;;;;-12.82;85.14;99626.25;4960913;28;20050;-76
2023/12/13 05:07:17;;;;;;;1.55;1.45;;;;;;;-12.80;85.06;99627.03;4979058;28;20050;-77
2023/12/13 05:09:44;;;;;;;1.80;1.70;;;;;;;-12.83;84.88;99627.19;4976721;28;20051;-76
2023/12/13 05:12:11;;;;;;;1.58;1.48;;;;;;;-12.85;85.06;99634.22;4971702;28;20419;-76
2023/12/13 05:14:41;;;;;;;1.70;1.60;;;;;;;-12.82;85.38;99631.44;4971265;28;20105;-77
2023/12/13 05:17:09;;;;;;;1.55;1.45;;;;;;;-12.87;85.04;99633.47;4970945;28;20461;-77
2023/12/13 05:19:36;;;;;;;1.60;1.50;;;;;;;-12.97;85.26;99637.47;4971561;28;20165;-77
2023/12/13 05:22:09;;;;;;;1.90;1.80;;;;;;;-12.98;85.21;99646.19;4970844;28;20063;-77
2023/12/13 05:24:36;;;;;;;1.70;1.60;;;;;;;-13.00;85.57;99646.25;4971525;28;20082;-77
2023/12/13 05:27:05;;;;;;;1.83;1.73;;;;;;;-12.96;85.52;99644.31;4964503;28;20421;-77
2023/12/13 05:29:34;;;;;;;1.98;1.88;;;;;;;-12.97;85.68;99632.28;4969661;28;20157;-77
2023/12/13 05:32:02;;;;;;;1.90;1.80;;;;;;;-12.96;85.47;99655.59;4970353;28;20137;-77
2023/12/13 05:34:29;;;;;;;1.73;1.63;;;;;;;-13.02;85.32;99639.47;4965958;28;20046;-76
2023/12/13 05:36:57;;;;;;;1.65;1.55;;;;;;;-13.02;85.34;99644.66;4959328;28;20058;-76
2023/12/13 05:39:29;;;;;;;1.85;1.75;;;;;;;-13.07;85.46;99657.06;4954941;28;20159;-77
2023/12/13 05:41:56;;;;;;;1.70;1.60;;;;;;;-13.10;85.44;99648.50;4959084;28;20055;-76
2023/12/13 05:44:24;;;;;;;1.70;1.60;;;;;;;-13.08;85.28;99642.41;4978258;28;20059;-76
2023/12/13 05:46:59;;;;;;;1.70;1.60;;;;;;;-13.08;85.05;99660.59;4975555;28;20395;-76
2023/12/13 05:49:26;;;;;;;1.70;1.60;;;;;;;-13.10;85.72;99658.88;4998860;28;20520;-76
2023/12/13 05:51:54;;;;;;;1.70;1.60;;;;;;;-13.06;85.88;99654.38;4976240;28;20043;-76
2023/12/13 05:54:23;;;;;;;1.60;1.50;;;;;;;-13.08;85.71;99658.81;4962324;28;20055;-76
2023/12/13 05:56:50;;;;;;;1.50;1.40;;;;;;;-13.08;85.74;99660.59;4961529;28;20050;-76
2023/12/13 05:59:17;;;;;;;1.70;1.60;;;;;;;-13.14;85.57;99669.50;4973089;28;20149;-76
2023/12/13 06:01:47;;;;;;;1.70;1.60;;;;;;;-13.15;85.67;99668.69;4959751;28;20146;-76
2023/12/13 06:04:15;;;;;;;1.55;1.45;;;;;;;-13.15;85.80;99663.47;4971501;28;20057;-76
2023/12/13 06:06:44;;;;;;;1.70;1.60;;;;;;;-13.16;85.64;99663.56;4978679;28;20074;-77
2023/12/13 06:09:12;;;;;;;1.73;1.63;;;;;;;-13.18;85.49;99666.25;4979704;28;20055;-76
2023/12/13 06:11:40;;;;;;;1.60;1.50;;;;;;;-13.18;85.12;99637.66;4968552;28;20509;-76
2023/12/13 06:14:09;;;;;;;1.73;1.63;;;;;;;-13.18;85.09;99661.03;4987820;28;20050;-76
2023/12/13 06:16:40;;;;;;;1.60;1.50;;;;;;;-13.23;84.96;99652.66;4991837;28;20055;-78
2023/12/13 06:19:07;;;;;;;1.83;1.73;;;;;;;-13.27;84.84;99658.94;4974159;28;20135;-77
2023/12/13 06:21:35;;;;;;;1.83;1.73;;;;;;;-13.25;84.93;99670.06;4971892;28;20066;-77
2023/12/13 06:24:03;;;;;;;1.48;1.38;;;;;;;-13.18;84.90;99655.84;4980036;28;20545;-79
2023/12/13 06:26:32;;;;;;;1.80;1.70;;;;;;;-13.31;84.75;99652.25;4979760;28;20043;-78
2023/12/13 06:29:06;;;;;;;1.90;1.80;;;;;;;-13.14;84.74;99670.38;4987510;28;20058;-77
2023/12/13 06:31:35;;;;;;;1.50;1.40;;;;;;;-13.16;84.69;99656.63;4959750;28;20527;-76
2023/12/13 06:34:02;;;;;;;1.90;1.80;;;;;;;-13.17;83.82;99662.72;4984044;28;20051;-77
2023/12/13 06:36:30;;;;;;;1.77;1.67;;;;;;;-13.13;84.18;99664.25;4982114;28;20109;-76
2023/12/13 06:39:04;;;;;;;1.85;1.75;;;;;;;-13.07;84.09;99663.09;4981644;28;20046;-76
2023/12/13 06:41:32;;;;;;;1.70;1.60;;;;;;;-13.07;83.42;99657.06;4976314;28;20078;-76
2023/12/13 06:44:02;;;;;;;1.63;1.52;;;;;;;-13.10;83.35;99665.84;5002915;28;20520;-76
2023/12/13 06:46:30;;;;;;;1.90;1.80;;;;;;;-13.02;83.38;99675.84;5007092;28;20050;-76
2023/12/13 06:48:57;;;;;;;1.58;1.48;;;;;;;-12.96;83.06;99684.19;4989987;28;20064;-76
2023/12/13 06:51:27;;;;;;;1.60;1.50;;;;;;;-13.00;82.99;99677.44;4976425;28;20057;-76
2023/12/13 06:53:54;;;;;;;1.60;1.50;;;;;;;-12.98;83.04;99683.41;4979414;28;20046;-78
2023/12/13 06:56:26;;;;;;;1.73;1.63;;;;;;;-12.95;83.09;99693.63;4978101;28;20432;-79
2023/12/13 06:58:54;;;;;;;1.80;1.70;;;;;;;-12.95;83.04;99685.00;4970829;28;20059;-76
2023/12/13 07:01:22;;;;;;;1.90;1.80;;;;;;;-12.90;82.67;99681.25;4628746;28;10001311;-75
2023/12/13 07:03:50;;;;;;;1.98;1.88;;;;;;;-12.82;82.39;99699.03;4992458;28;20060;-76
2023/12/13 07:06:18;;;;;;;1.70;1.60;;;;;;;-12.84;82.16;99677.47;4979736;28;20078;-76
2023/12/13 07:08:46;;;;;;;1.85;1.75;;;;;;;-12.84;81.75;99698.28;4978517;28;20437;-77
2023/12/13 07:11:17;;;;;;;1.70;1.60;;;;;;;-12.86;81.67;99684.53;4977779;28;20099;-76
2023/12/13 07:13:46;;;;;;;1.90;1.80;;;;;;;-12.80;81.45;99684.22;4974148;28;20456;-77
2023/12/13 07:16:18;;;;;;;2.00;1.90;;;;;;;-12.76;81.56;99687.47;4968791;28;20047;-76
2023/12/13 07:18:45;;;;;;;1.50;1.40;;;;;;;-12.69;81.32;99699.25;4991756;28;20043;-76
2023/12/13 07:21:20;;;;;;;2.00;1.90;;;;;;;-12.66;81.42;99689.53;4995361;28;20101;-77
2023/12/13 07:23:48;;;;;;;1.48;1.38;;;;;;;-12.61;80.85;99702.28;4984313;28;20509;-76
2023/12/13 07:26:16;;;;;;;1.77;1.67;;;;;;;-12.68;80.78;99693.13;4982591;28;20078;-76
2023/12/13 07:28:44;;;;;;;1.80;1.70;;;;;;;-12.77;80.73;99685.81;4996541;28;20149;-76
2023/12/13 07:31:11;;;;;;;1.67;1.58;;;;;;;-12.69;80.69;99699.25;4980092;28;20047;-77
2023/12/13 07:33:40;;;;;;;1.70;1.60;;;;;;;-12.69;80.17;99699.25;4981976;28;20105;-77
2023/12/13 07:36:11;;;;;;;1.60;1.50;;;;;;;-12.78;80.10;99692.78;4982433;28;20148;-77
2023/12/13 07:38:41;;;;;;;1.50;1.40;;;;;;;-12.71;80.17;99703.66;4981373;28;20425;-78
2023/12/13 07:41:09;;;;;;;1.48;1.38;;;;;;;-12.63;80.32;99693.72;4978458;28;20050;-78
2023/12/13 07:43:36;;;;;;;1.70;1.60;;;;;;;-12.71;80.01;99706.28;4973475;28;20133;-77
2023/12/13 07:46:04;;;;;;;1.88;1.77;;;;;;;-12.75;79.78;99707.38;4971736;28;20058;-77
2023/12/13 07:48:31;;;;;;;1.80;1.70;;;;;;;-12.72;79.89;99686.41;4956445;28;20190;-77
2023/12/13 07:50:59;;;;;;;1.50;1.40;;;;;;;-12.70;80.04;99708.81;4956028;28;20426;-78
2023/12/13 07:53:27;;;;;;;1.67;1.58;;;;;;;-12.75;80.09;99689.19;4972792;28;20133;-77
2023/12/13 07:55:54;;;;;;;1.80;1.70;;;;;;;-12.73;80.02;99701.16;4955822;28;20054;-77
2023/12/13 07:58:22;;;;;;;1.48;1.38;;;;;;;-12.80;79.84;99704.16;4972643;28;20134;-77
2023/12/13 08:00:58;;;;;;;1.88;1.77;;;;;;;-12.78;80.17;99690.19;4973104;28;20050;-77
2023/12/13 08:03:26;;;;;;;1.50;1.40;;;;;;;-12.76;80.00;99701.34;4972620;28;20142;-77
2023/12/13 08:05:53;;;;;;;1.60;1.50;;;;;;;-12.69;79.92;99709.63;4971636;28;20830;-78
2023/12/13 08:08:21;;;;;;;1.60;1.50;;;;;;;-12.60;79.77;99662.34;4987372;28;20078;-78
2023/12/13 08:10:48;;;;;;;1.73;1.63;;;;;;;-12.55;79.60;99695.94;4972878;28;20053;-79
2023/12/13 08:13:16;;;;;;;1.90;1.80;;;;;;;-12.50;78.97;99699.94;4955775;28;20417;-78
2023/12/13 08:15:48;;;;;;;1.90;1.80;;;;;;;-12.38;79.20;99697.59;4973278;28;20051;-78
2023/12/13 08:18:15;;;;;;;1.80;1.70;;;;;;;-12.31;78.90;99689.38;4972250;28;20057;-78
2023/12/13 08:20:46;;;;;;;1.80;1.70;;;;;;;-12.41;78.53;99698.59;4972632;28;20051;-77
2023/12/13 08:23:13;;;;;;;1.70;1.60;;;;;;;-12.39;78.51;99695.94;4971189;28;20057;-77
2023/12/13 08:25:41;;;;;;;1.65;1.55;;;;;;;-12.38;78.58;99677.66;4972761;28;20055;-77
2023/12/13 08:28:08;;;;;;;1.58;1.48;;;;;;;-12.45;78.49;99690.16;4970962;28;20074;-77
2023/12/13 08:30:36;;;;;;;1.67;1.58;;;;;;;-12.45;78.46;99671.94;4972673;28;20043;-76
2023/12/13 08:33:03;;;;;;;1.75;1.65;;;;;;;-12.49;78.68;99695.59;4971969;28;20059;-77
2023/12/13 08:35:31;;;;;;;1.83;1.73;;;;;;;-12.45;78.63;99697.13;4970301;28;20445;-76
2023/12/13 08:37:58;;;;;;;1.63;1.52;;;;;;;-12.48;78.56;99692.91;4969069;28;20075;-76
2023/12/13 08:40:25;;;;;;;1.52;1.42;;;;;;;-12.50;78.69;99693.91;4968143;28;20061;-77
2023/12/13 08:42:53;;;;;;;1.90;1.80;;;;;;;-12.57;78.45;99689.97;4972539;28;20057;-77
2023/12/13 08:45:20;;;;;;;1.73;1.63;;;;;;;-12.55;78.52;99677.72;4971849;28;20424;-76
2023/12/13 08:47:48;;;;;;;1.80;1.70;;;;;;;-12.42;78.58;99688.31;4972363;28;20057;-76
2023/12/13 08:50:17;;;;;;;1.88;1.77;;;;;;;-12.42;78.71;99690.91;4971946;28;20695;-76
2023/12/13 08:52:44;;;;;;;1.75;1.65;;;;;;;-12.45;78.18;99692.75;4971306;28;20055;-76
2023/12/13 08:55:12;;;;;;;1.60;1.50;;;;;;;-12.47;78.59;99697.19;4961104;28;20155;-76
2023/12/13 08:57:39;;;;;;;1.60;1.50;;;;;;;-12.48;78.88;99687.72;4979403;28;20054;-76
2023/12/13 09:00:07;;;;;;;1.52;1.42;;;;;;;-12.57;79.20;99685.59;4962574;28;20399;-76
2023/12/13 09:02:37;;;;;;;1.60;1.50;;;;;;;-12.67;79.28;99693.03;4952830;28;20141;-76
2023/12/13 09:05:05;;;;;;;1.75;1.65;;;;;;;-12.67;79.75;99682.63;4951659;29;20431;-76
2023/12/13 09:07:32;;;;;;;1.80;1.70;;;;;;;-12.60;79.98;99688.38;4953115;28;20500;-77
2023/12/13 09:10:03;;;;;;;1.60;1.50;;;;;;;-12.57;79.57;99689.97;4951553;29;20155;-76
2023/12/13 09:12:33;;;;;;;1.70;1.60;;;;;;;-12.58;79.55;99690.88;4951237;29;20051;-77
2023/12/13 09:15:00;;;;;;;1.55;1.45;;;;;;;-12.62;79.44;99695.41;4952838;28;20058;-77
2023/12/13 09:17:30;;;;;;;1.80;1.70;;;;;;;-12.59;79.41;99690.03;4951029;29;20047;-77
2023/12/13 09:19:57;;;;;;;1.80;1.70;;;;;;;-12.53;79.33;99688.84;4952588;28;20047;-77
2023/12/13 09:22:25;;;;;;;1.60;1.50;;;;;;;-12.53;79.11;99692.31;4952405;28;20043;-77
2023/12/13 09:24:52;;;;;;;1.70;1.60;;;;;;;-12.46;79.00;99700.63;4952708;28;20063;-76
2023/12/13 09:27:22;;;;;;;1.73;1.63;;;;;;;-12.42;78.78;99702.16;4967558;28;20051;-76
2023/12/13 09:29:51;;;;;;;1.85;1.75;;;;;;;-12.32;78.84;99705.09;4970258;28;20082;-78
2023/12/13 09:32:19;;;;;;;1.83;1.73;;;;;;;-12.39;78.54;99701.97;4971519;28;20055;-77
2023/12/13 09:34:46;;;;;;;1.73;1.63;;;;;;;-12.34;78.75;99710.38;4971586;28;20043;-75
2023/12/13 09:37:15;;;;;;;1.42;1.33;;;;;;;-12.31;78.97;99710.19;4971288;28;20046;-76
2023/12/13 09:39:45;;;;;;;1.83;1.73;;;;;;;-12.44;78.88;99707.41;4971582;28;20066;-76
2023/12/13 09:42:15;;;;;;;1.90;1.80;;;;;;;-12.39;79.37;99701.97;4972422;28;20465;-77
2023/12/13 09:44:44;;;;;;;1.90;1.80;;;;;;;-12.31;79.41;99693.75;4975597;28;20141;-77
2023/12/13 09:47:13;;;;;;;1.90;1.80;;;;;;;-12.25;79.52;99694.28;4975241;28;20104;-78
2023/12/13 09:49:41;;;;;;;1.67;1.58;;;;;;;-12.17;79.75;99703.44;4975168;28;20465;-78
2023/12/13 09:52:09;;;;;;;1.75;1.65;;;;;;;-12.17;79.80;99690.41;4957919;28;20145;-78
2023/12/13 09:54:41;;;;;;;1.60;1.50;;;;;;;-12.14;79.77;99691.09;4974951;28;20098;-77
2023/12/13 09:57:08;;;;;;;1.70;1.60;;;;;;;-12.13;79.81;99704.94;4974975;28;20055;-77
2023/12/13 09:59:38;;;;;;;1.65;1.55;;;;;;;-12.30;79.30;99687.66;4975255;28;20133;-77
2023/12/13 10:02:16;;;;;;;1.67;1.58;;;;;;;-12.32;79.09;99690.31;4975773;28;20050;-79
2023/12/13 10:04:44;;;;;;;1.63;1.52;;;;;;;-12.36;79.18;99690.56;4969701;28;20473;-76
2023/12/13 10:07:12;;;;;;;1.75;1.65;;;;;;;-12.31;79.57;99676.38;4986471;28;20080;-77
2023/12/13 10:09:39;;;;;;;1.90;1.80;;;;;;;-12.20;79.34;99700.97;4978776;28;20055;-77
2023/12/13 10:12:07;;;;;;;1.67;1.58;;;;;;;-12.29;79.28;99703.16;4969454;28;20056;-79
2023/12/13 10:14:35;;;;;;;1.70;1.60;;;;;;;-12.50;78.76;99686.13;4945089;28;20573;-79
2023/12/13 10:17:03;;;;;;;1.70;1.60;;;;;;;-12.49;79.09;99695.59;4975002;28;20510;-77
2023/12/13 10:19:45;;;;;;;1.85;1.75;;;;;;;-12.35;79.07;99689.66;4961394;28;20094;-78
2023/12/13 10:22:15;;;;;;;1.70;1.60;;;;;;;-12.35;78.52;99687.88;4960597;28;20309;-79
2023/12/13 10:24:47;;;;;;;1.70;1.60;;;;;;;-12.27;78.95;99683.09;4971129;28;20051;-80
2023/12/13 10:27:15;;;;;;;1.70;1.60;;;;;;;-12.16;79.24;99697.28;4977485;28;20476;-78
2023/12/13 10:29:46;;;;;;;1.70;1.60;;;;;;;-12.15;78.67;99680.75;4977215;28;20146;-79
2023/12/13 10:32:18;;;;;;;1.73;1.63;;;;;;;-12.15;78.74;99693.75;4973341;28;20068;-79
2023/12/13 10:34:46;;;;;;;2.00;1.90;;;;;;;-12.18;78.49;99693.94;4981444;28;20051;-79
2023/12/13 10:37:13;;;;;;;1.67;1.58;;;;;;;-12.25;78.16;99689.06;4978640;28;20061;-78
2023/12/13 10:39:44;;;;;;;1.60;1.50;;;;;;;-12.20;78.11;99685.34;4969538;28;20054;-80
2023/12/13 10:42:16;;;;;;;1.70;1.60;;;;;;;-12.17;78.12;99688.66;4969330;28;20250;-79
2023/12/13 10:44:46;;;;;;;1.63;1.52;;;;;;;-12.24;77.86;99697.72;4975868;28;20046;-78
2023/12/13 10:47:26;;;;;;;1.80;1.70;;;;;;;-12.14;78.00;99692.84;4956818;28;20050;-79
2023/12/13 10:49:57;;;;;;;1.90;1.80;;;;;;;-12.22;77.76;99688.91;4979890;28;20057;-78
2023/12/13 10:52:28;;;;;;;1.70;1.60;;;;;;;-12.31;77.80;99683.34;4985359;28;20058;-80
2023/12/13 10:54:57;;;;;;;1.77;1.67;;;;;;;-12.32;77.94;99676.47;4976002;28;20515;-79
2023/12/13 10:57:38;;;;;;;1.65;1.55;;;;;;;-12.26;77.82;99671.75;4950730;28;20143;-78
2023/12/13 11:00:07;;;;;;;1.60;1.50;;;;;;;-12.24;77.88;99692.50;4949167;28;20046;-78
2023/12/13 11:02:43;;;;;;;1.65;1.55;;;;;;;-12.39;77.28;99695.94;4970316;28;20051;-78
2023/12/13 11:05:10;;;;;;;1.70;1.60;;;;;;;-12.42;77.51;99711.72;4950965;28;20171;-78
2023/12/13 11:07:44;;;;;;;1.75;1.65;;;;;;;-12.45;77.62;99689.31;4977479;28;20057;-78
2023/12/13 11:10:15;;;;;;;1.80;1.70;;;;;;;-12.41;77.88;99708.19;4977433;28;20105;-78
2023/12/13 11:12:51;;;;;;;1.50;1.40;;;;;;;-12.53;77.82;99689.72;4979380;28;20070;-79
2023/12/13 11:15:19;;;;;;;;;;;;;;;-12.44;78.17;99724.78;4977802;28;20054;-79
2023/12/13 11:18:19;;;;;;;1.80;1.70;;;;;;;-12.58;77.91;99690.88;4958305;28;20016;-78
2023/12/13 11:20:50;;;;;;;1.60;1.50;;;;;;;-12.37;78.15;99704.50;4975200;28;20386;-78
2023/12/13 11:23:47;;;;;;;1.67;1.58;;;;;;;-12.32;77.85;99684.28;4973362;28;20046;-78
2023/12/13 11:26:15;;;;;;;1.70;1.60;;;;;;;-12.35;77.97;99693.09;4992994;28;20059;-78
2023/12/13 11:28:49;;;;;;;1.80;1.70;;;;;;;-12.40;77.94;99681.22;4973949;28;20051;-78
2023/12/13 11:31:22;;;;;;;1.70;1.60;;;;;;;-12.42;77.67;99694.34;4973133;28;20689;-78
2023/12/13 11:33:52;;;;;;;1.90;1.80;;;;;;;-12.43;77.81;99697.84;4971684;28;20489;-78
2023/12/13 11:36:22;;;;;;;1.90;1.80;;;;;;;-12.51;77.56;99697.41;4971997;28;20510;-78